^^
Station Historical Data
Daily Summary for March 26, 2017 Units:  English    Metric   Both
« Previous Day
Next Day »
Daily Weekly Monthly Yearly Custom
  High: Low: Average:
Temperature: 39.3 °F 35.0 °F 37.5 °F
Dew Point: 36.9 °F 31.7 °F 33.8 °F
Humidity: 95% 77% 87%
Wind Speed: 3.0mph 0.0mph 0.6mph
Wind Gust: 12.0mph - -
Wind- - SE
Pressure: 30.50 in 30.35 in -
Precipitation: 0.18 in    
Historical Graphs
 
 
Tabular Data for March 26, 2017
Time Temperature Dew Point Pressure Wind Wind Speed Wind Gust Humidity Rainfall Rate (Hourly) Conditions
00:00 38.7 °F 36.9 °F 30.42 in WNW 1.0 mph 3.0 mph 93% 0.00 in RA
00:15 38.4 °F 36.6 °F 30.42 in Calm   1.0 mph 93% 0.00 in BKN
00:30 38.2 °F 36.4 °F 30.42 in Calm   1.0 mph 93% 0.00 in BKN
00:45 38.0 °F 36.2 °F 30.42 in Calm   1.0 mph 93% 0.00 in BKN
01:00 37.9 °F 36.1 °F 30.42 in Calm     93% 0.00 in BKN
02:15 38.7 °F 36.6 °F 30.43 in Calm   4.0 mph 92% 0.00 in OVC
02:30 38.6 °F 36.2 °F 30.43 in ENE 1.0 mph 2.0 mph 91% 0.00 in OVC
02:45 38.5 °F 34.9 °F 30.43 in Calm   4.0 mph 87% 0.00 in OVC
03:00 38.3 °F 34.5 °F 30.44 in North 1.0 mph 5.0 mph 86% 0.00 in OVC
03:15 38.1 °F 34.0 °F 30.44 in Calm   6.0 mph 85% 0.00 in BKN
03:30 38.1 °F 33.7 °F 30.44 in Calm   9.0 mph 84% 0.00 in BKN
03:45 38.0 °F 33.6 °F 30.43 in East 1.0 mph 5.0 mph 84% 0.00 in BKN
04:00 37.9 °F 33.5 °F 30.44 in Calm   3.0 mph 84% 0.00 in BKN
04:15 37.7 °F 33.3 °F 30.43 in NNE 1.0 mph 4.0 mph 84% 0.00 in BKN
04:30 37.6 °F 33.2 °F 30.43 in Calm   3.0 mph 84% 0.00 in BKN
04:45 37.5 °F 33.1 °F 30.43 in NE 1.0 mph 5.0 mph 84% 0.00 in BKN
05:00 37.0 °F 32.6 °F 30.44 in Calm   4.0 mph 84% 0.00 in BKN
05:15 36.8 °F 32.7 °F 30.44 in North 1.0 mph 3.0 mph 85% 0.00 in -RA
05:30 36.7 °F 32.6 °F 30.44 in Calm   3.0 mph 85% 0.00 in -RA
05:45 36.7 °F 32.6 °F 30.45 in Calm   3.0 mph 85% 0.01 in -RA
06:00 36.3 °F 32.8 °F 30.45 in Calm   2.0 mph 87% 0.00 in -RA
06:15 35.7 °F 32.8 °F 30.45 in Calm   2.0 mph 89% 0.10 in RA
06:30 35.3 °F 32.7 °F 30.45 in Calm   2.0 mph 90% 0.03 in RA
06:45 35.0 °F 32.6 °F 30.46 in Calm   1.0 mph 91% 0.01 in BKN
07:00 35.0 °F 32.9 °F 30.45 in Calm   2.0 mph 92% 0.00 in BKN
07:15 35.0 °F 32.9 °F 30.45 in Calm   1.0 mph 92% 0.00 in -RA
07:30 35.1 °F 33.0 °F 30.46 in Calm   3.0 mph 92% 0.00 in -RA
07:45 35.3 °F 33.2 °F 30.46 in Calm   1.0 mph 92% 0.00 in -RA
08:00 35.4 °F 33.0 °F 30.47 in Calm   3.0 mph 91% 0.00 in -RA
08:15 35.6 °F 33.2 °F 30.47 in Calm   2.0 mph 91% 0.00 in BKN
08:30 36.0 °F 33.6 °F 30.47 in Calm   1.0 mph 91% 0.00 in BKN
08:45 36.1 °F 33.4 °F 30.47 in Calm   3.0 mph 90% 0.00 in BKN
09:00 36.1 °F 33.1 °F 30.48 in Calm   6.0 mph 89% 0.00 in BKN
09:15 36.3 °F 33.4 °F 30.48 in North 1.0 mph 4.0 mph 89% 0.00 in BKN
09:30 36.6 °F 33.1 °F 30.49 in Calm   5.0 mph 87% 0.00 in BKN
09:45 37.0 °F 33.2 °F 30.49 in NNE 1.0 mph 4.0 mph 86% 0.00 in BKN
10:00 37.3 °F 33.5 °F 30.49 in Calm   5.0 mph 86% 0.00 in BKN
10:15 37.6 °F 33.5 °F 30.50 in WSW 1.0 mph 7.0 mph 85% 0.00 in BKN
10:30 37.5 °F 32.8 °F 30.49 in Calm   8.0 mph 83% 0.00 in BKN
10:45 38.1 °F 33.1 °F 30.50 in SSW 1.0 mph 5.0 mph 82% 0.00 in BKN
11:15 38.3 °F 32.7 °F 30.50 in East 1.0 mph 9.0 mph 80% 0.00 in BKN
11:30 38.4 °F 32.5 °F 30.50 in South 2.0 mph 5.0 mph 79% 0.00 in BKN
11:45 38.7 °F 32.4 °F 30.50 in NNW 1.0 mph 6.0 mph 78% 0.00 in BKN
12:00 38.7 °F 32.4 °F 30.50 in North 1.0 mph 9.0 mph 78% 0.00 in BKN
12:15 38.6 °F 32.0 °F 30.50 in ESE 1.0 mph 6.0 mph 77% 0.00 in BKN
12:30 38.7 °F 32.4 °F 30.50 in NE 2.0 mph 8.0 mph 78% 0.00 in BKN
12:45 38.6 °F 32.3 °F 30.49 in Calm   5.0 mph 78% 0.00 in BKN
13:00 38.4 °F 32.1 °F 30.48 in NNW 1.0 mph 7.0 mph 78% 0.00 in BKN
13:15 38.3 °F 31.7 °F 30.48 in NE 2.0 mph 7.0 mph 77% 0.00 in BKN
13:30 38.3 °F 32.0 °F 30.48 in Calm   6.0 mph 78% 0.00 in BKN
13:45 38.5 °F 32.2 °F 30.47 in Calm   5.0 mph 78% 0.00 in BKN
14:00 38.3 °F 32.3 °F 30.47 in ENE 3.0 mph 7.0 mph 79% 0.00 in BKN
14:15 37.9 °F 32.6 °F 30.47 in NE 1.0 mph 5.0 mph 81% 0.00 in BKN
14:30 37.7 °F 32.7 °F 30.46 in Calm   4.0 mph 82% 0.01 in RA
14:45 37.6 °F 33.5 °F 30.46 in Calm   3.0 mph 85% 0.00 in BKN
15:00 37.6 °F 33.8 °F 30.45 in Calm   5.0 mph 86% 0.00 in BKN
15:15 38.0 °F 33.9 °F 30.45 in Calm   4.0 mph 85% 0.00 in -RA
15:45 38.8 °F 34.4 °F 30.44 in NE 2.0 mph 7.0 mph 84% 0.00 in -RA
16:00 38.9 °F 34.2 °F 30.43 in East 1.0 mph 6.0 mph 83% 0.00 in -RA
16:15 39.3 °F 34.6 °F 30.42 in NNW 3.0 mph 9.0 mph 83% 0.00 in OVC
16:30 39.2 °F 34.1 °F 30.43 in NE 1.0 mph 8.0 mph 82% 0.00 in OVC
16:45 39.1 °F 33.8 °F 30.43 in Calm   8.0 mph 81% 0.00 in OVC
17:00 39.0 °F 33.7 °F 30.42 in Calm   4.0 mph 81% 0.00 in OVC
17:15 39.1 °F 33.8 °F 30.42 in Calm   6.0 mph 81% 0.00 in OVC
17:30 39.0 °F 34.0 °F 30.42 in ESE 3.0 mph 4.0 mph 82% 0.00 in OVC
17:45 39.0 °F 34.2 °F 30.42 in Calm   5.0 mph 83% 0.00 in OVC
18:00 38.7 °F 34.3 °F 30.41 in NE 2.0 mph 12.0 mph 84% 0.00 in OVC
18:15 38.7 °F 34.6 °F 30.41 in NNE 1.0 mph 9.0 mph 85% 0.00 in OVC
18:30 38.5 °F 34.7 °F 30.40 in NNE 1.0 mph 5.0 mph 86% 0.00 in OVC
18:45 38.3 °F 34.8 °F 30.40 in NNE 1.0 mph 8.0 mph 87% 0.00 in OVC
19:00 38.1 °F 34.9 °F 30.40 in NNE 1.0 mph 3.0 mph 88% 0.00 in OVC
19:15 38.0 °F 34.7 °F 30.39 in NNW 1.0 mph 4.0 mph 88% 0.00 in OVC
19:30 37.8 °F 34.8 °F 30.39 in NW 1.0 mph 4.0 mph 89% 0.00 in OVC
19:45 37.7 °F 35.0 °F 30.39 in Calm   4.0 mph 90% 0.00 in OVC
20:00 37.5 °F 34.8 °F 30.38 in NNW 1.0 mph 5.0 mph 90% 0.00 in OVC
20:15 37.3 °F 34.9 °F 30.39 in Calm   7.0 mph 91% 0.00 in OVC
20:30 37.1 °F 35.0 °F 30.40 in NNW 2.0 mph 7.0 mph 92% 0.00 in OVC
20:45 36.9 °F 34.8 °F 30.40 in North 1.0 mph 3.0 mph 92% 0.00 in OVC
21:00 36.8 °F 35.0 °F 30.40 in Calm   4.0 mph 93% 0.01 in RA
21:15 36.7 °F 34.9 °F 30.39 in Calm   3.0 mph 93% 0.00 in -RA
21:30 36.6 °F 35.1 °F 30.39 in Calm   4.0 mph 94% 0.00 in -RA
21:45 36.5 °F 35.0 °F 30.37 in North 1.0 mph 3.0 mph 94% 0.00 in -RA
22:00 36.4 °F 34.9 °F 30.36 in NE 1.0 mph 4.0 mph 94% 0.00 in -RA
22:30 36.3 °F 34.7 °F 30.36 in Calm   3.0 mph 94% 0.00 in -RA
22:45 36.2 °F 34.9 °F 30.37 in Calm   3.0 mph 95% 0.00 in -RA
23:00 36.1 °F 34.8 °F 30.36 in Calm   2.0 mph 95% 0.00 in -RA
23:15 36.1 °F 34.8 °F 30.36 in Calm   2.0 mph 95% 0.00 in -RA
23:30 35.9 °F 34.6 °F 30.36 in Calm   4.0 mph 95% 0.01 in -RA
23:45 35.9 °F 34.6 °F 30.35 in Calm   2.0 mph 95% 0.00 in -RA
TarryTown NY Weather
Compliments of Weather Underground - 1.5 mb